createdAt,value
2023-04-27T00:02:57.072Z,100004.19
2023-04-27T00:06:20.729Z,99992.25
2023-04-27T00:09:42.557Z,99974.59
2023-04-27T00:13:04.818Z,99995.59
2023-04-27T00:16:27.317Z,100000.75
2023-04-27T00:19:49.359Z,100000.78
2023-04-27T00:23:12.853Z,100005.16
2023-04-27T00:26:34.953Z,100005.22
2023-04-27T00:29:56.677Z,100009.59
2023-04-27T00:33:18.722Z,100007.00
2023-04-27T00:36:40.416Z,100014.78
2023-04-27T00:40:06.797Z,100016.63
2023-04-27T00:43:28.517Z,100024.38
2023-04-27T00:46:50.656Z,100033.94
2023-04-27T00:50:12.910Z,100027.94
2023-04-27T00:53:36.280Z,100029.56
2023-04-27T00:56:59.720Z,100020.03
2023-04-27T01:00:22.348Z,100019.19
2023-04-27T01:03:44.336Z,100024.38
2023-04-27T01:07:06.174Z,100027.88
2023-04-27T01:10:28.593Z,100023.56
2023-04-27T01:13:52.768Z,100027.09
2023-04-27T01:17:15.288Z,100029.72
2023-04-27T01:20:38.918Z,100015.06
2023-04-27T01:24:02.082Z,100021.06
2023-04-27T01:27:24.907Z,100021.09
2023-04-27T01:30:46.422Z,99998.81
2023-04-27T01:34:08.042Z,99998.94
2023-04-27T01:37:29.782Z,100011.63
2023-04-27T01:40:53.421Z,100008.97
2023-04-27T01:44:15.158Z,100005.47
2023-04-27T01:47:37.322Z,100010.66
2023-04-27T01:50:59.326Z,100015.88
2023-04-27T01:54:21.155Z,100011.50
2023-04-27T01:57:44.395Z,100015.75
2023-04-27T02:01:06.204Z,100016.63
2023-04-27T02:04:28.475Z,100015.75
2023-04-27T02:07:50.849Z,100029.56
2023-04-27T02:11:13.084Z,100016.03
2023-04-27T02:14:36.321Z,100039.16
2023-04-27T02:17:58.690Z,100032.22
2023-04-27T02:21:20.460Z,100031.31
2023-04-27T02:24:42.484Z,100031.44
2023-04-27T02:28:04.856Z,100029.00
2023-04-27T02:31:28.945Z,100039.25
2023-04-27T02:34:50.966Z,100033.31
2023-04-27T02:38:13.646Z,100034.16
2023-04-27T02:41:35.604Z,100036.75
2023-04-27T02:44:57.335Z,100040.19
2023-04-27T02:48:20.443Z,100035.91
2023-04-27T02:51:42.334Z,100027.22
2023-04-27T02:55:04.162Z,100033.25
2023-04-27T02:58:26.214Z,100036.81
2023-04-27T03:01:48.230Z,100037.75
2023-04-27T03:05:11.571Z,100040.44
2023-04-27T03:08:33.684Z,100041.28
2023-04-27T03:11:55.169Z,100043.16
2023-04-27T03:15:17.250Z,100052.50
2023-04-27T03:18:39.526Z,100049.06
2023-04-27T03:22:02.850Z,100055.94
2023-04-27T03:25:25.066Z,100049.78
2023-04-27T03:28:47.257Z,100058.44
2023-04-27T03:32:08.789Z,100063.69
2023-04-27T03:35:30.899Z,100033.22
2023-04-27T03:38:54.048Z,100061.22
2023-04-27T03:42:15.621Z,100079.16
2023-04-27T03:45:37.375Z,100073.97
2023-04-27T03:48:59.428Z,100080.84
2023-04-27T03:52:21.472Z,100081.56
2023-04-27T03:55:45.909Z,100083.22
2023-04-27T04:07:53.629Z,100079.66
2023-04-27T04:11:16.947Z,100097.59
2023-04-27T04:14:38.459Z,100098.53
2023-04-27T04:18:00.368Z,100091.59
2023-04-27T04:21:22.368Z,100101.03
2023-04-27T04:24:44.118Z,100095.13
2023-04-27T04:28:07.538Z,100106.00
2023-04-27T04:31:29.938Z,100118.03
2023-04-27T04:34:51.949Z,100112.84
2023-04-27T04:38:14.217Z,100120.53
2023-04-27T04:41:36.006Z,100124.75
2023-04-27T04:44:59.185Z,100123.75
2023-04-27T04:48:22.387Z,100125.34
2023-04-27T04:51:44.993Z,100125.34
2023-04-27T04:55:07.646Z,100119.19
2023-04-27T04:58:29.734Z,100121.66
2023-04-27T05:01:55.798Z,100112.38
2023-04-27T05:05:18.016Z,100119.09
2023-04-27T05:08:39.719Z,100124.97
2023-04-27T05:12:02.961Z,100129.16
2023-04-27T05:15:24.830Z,100135.19
2023-04-27T05:18:48.000Z,100121.03
2023-04-27T05:22:10.058Z,100151.47
2023-04-27T05:25:31.994Z,100154.66
2023-04-27T05:28:53.888Z,100163.13
2023-04-27T05:32:16.015Z,100166.41
2023-04-27T05:35:39.207Z,100166.16
2023-04-27T05:39:00.827Z,100173.41
2023-04-27T05:42:22.767Z,100180.16
2023-04-27T05:45:44.653Z,100180.13
2023-04-27T05:49:06.811Z,100171.59
2023-04-27T05:52:31.383Z,100172.34
2023-04-27T05:55:53.811Z,100173.03
2023-04-27T05:59:16.030Z,100169.44
2023-04-27T06:02:38.506Z,100183.06
2023-04-27T06:06:02.199Z,100180.16
2023-04-27T06:09:25.688Z,100172.22
2023-04-27T06:12:47.740Z,100180.75
2023-04-27T06:16:09.452Z,100180.78
2023-04-27T06:19:31.619Z,100186.78
2023-04-27T06:22:53.362Z,100187.38
2023-04-27T06:26:16.603Z,100190.63
2023-04-27T06:29:38.642Z,100195.31
2023-04-27T06:33:00.502Z,100192.72
2023-04-27T06:36:22.189Z,100207.63
2023-04-27T06:39:44.892Z,100200.41
2023-04-27T06:43:08.216Z,100177.84
2023-04-27T06:46:30.231Z,100208.56
2023-04-27T06:49:52.179Z,100206.97
2023-04-27T06:53:13.945Z,100210.06
2023-04-27T06:56:36.089Z,100215.06
2023-04-27T06:59:59.337Z,100221.06
2023-04-27T07:03:22.494Z,100220.78
2023-04-27T07:06:44.836Z,100217.47
2023-04-27T07:10:07.755Z,100225.03
2023-04-27T07:13:29.998Z,100223.31
2023-04-27T07:16:53.439Z,100228.56
2023-04-27T07:20:16.929Z,100229.00
2023-04-27T07:23:39.838Z,100225.03
2023-04-27T07:27:02.793Z,100227.16
2023-04-27T07:30:24.949Z,100233.16
2023-04-27T07:33:48.164Z,100239.91
2023-04-27T07:37:10.874Z,100241.63
2023-04-27T07:40:34.692Z,100224.78
2023-04-27T07:43:58.068Z,100242.38
2023-04-27T07:47:19.992Z,100246.91
2023-04-27T07:50:43.620Z,100250.16
2023-04-27T07:54:05.481Z,100246.69
2023-04-27T07:57:27.250Z,100260.09
2023-04-27T08:00:49.217Z,100256.94
2023-04-27T08:04:12.956Z,100265.81
2023-04-27T08:07:41.229Z,100264.06
2023-04-27T08:11:06.343Z,100272.38
2023-04-27T08:14:28.092Z,100275.56
2023-04-27T08:17:49.684Z,100278.56
2023-04-27T08:21:11.476Z,100276.66
2023-04-27T08:24:34.610Z,100272.28
2023-04-27T08:27:56.700Z,100281.38
2023-04-27T08:31:18.536Z,100277.44
2023-04-27T08:34:40.314Z,100276.06
2023-04-27T08:38:02.116Z,100272.94
2023-04-27T08:41:25.766Z,100286.63
2023-04-27T08:44:47.624Z,100283.59
2023-04-27T08:48:10.196Z,100287.75
2023-04-27T08:51:33.929Z,100296.72
2023-04-27T08:54:55.995Z,100307.91
2023-04-27T08:58:19.690Z,100303.53
2023-04-27T09:01:46.542Z,100278.47
2023-04-27T09:05:17.048Z,100303.25
2023-04-27T09:08:46.676Z,100302.88
2023-04-27T09:12:19.726Z,100304.81
2023-04-27T09:15:48.641Z,100304.66
2023-04-27T09:19:10.397Z,100315.63
2023-04-27T09:22:32.479Z,100318.53
2023-04-27T09:25:54.803Z,100322.88
2023-04-27T09:29:16.536Z,100324.47
2023-04-27T09:32:39.811Z,100324.28
2023-04-27T09:36:03.301Z,100327.78
2023-04-27T09:39:25.561Z,100296.88
2023-04-27T09:42:48.071Z,100318.03
2023-04-27T09:46:10.028Z,100326.47
2023-04-27T09:49:36.166Z,100321.28
2023-04-27T09:52:58.416Z,100329.38
2023-04-27T09:56:32.676Z,100329.13
2023-04-27T10:00:11.127Z,100339.44
2023-04-27T10:03:44.766Z,100333.59
2023-04-27T10:07:09.654Z,100339.84
2023-04-27T10:10:31.396Z,100336.16
2023-04-27T10:13:54.818Z,100335.81
2023-04-27T10:17:17.597Z,100341.28
2023-04-27T10:20:41.108Z,100332.94
2023-04-27T10:24:09.768Z,100333.63
2023-04-27T10:27:41.311Z,100340.38
2023-04-27T10:31:11.500Z,100341.66
2023-04-27T10:34:36.508Z,100343.50
2023-04-27T10:38:07.461Z,100344.00
2023-04-27T10:41:36.922Z,100337.34
2023-04-27T10:44:59.492Z,100343.31
2023-04-27T10:48:21.954Z,100349.50
2023-04-27T10:51:43.931Z,100355.84
2023-04-27T10:55:16.600Z,100356.34
2023-04-27T11:02:05.231Z,100363.50
2023-04-27T11:05:30.631Z,100363.00
2023-04-27T11:08:52.762Z,100364.53
2023-04-27T11:12:15.093Z,100370.56
2023-04-27T11:15:46.267Z,100385.28
2023-04-27T11:19:08.357Z,100388.16
2023-04-27T11:22:30.352Z,100395.06
2023-04-27T11:25:52.907Z,100384.28
2023-04-27T11:29:15.719Z,100393.50
2023-04-27T11:32:39.161Z,100398.31
2023-04-27T11:36:01.845Z,100401.34
2023-04-27T11:39:23.989Z,100404.81
2023-04-27T11:42:48.072Z,100409.41
2023-04-27T11:46:11.242Z,100408.06
2023-04-27T11:49:34.557Z,100405.59
2023-04-27T11:52:56.399Z,100419.28
2023-04-27T11:56:18.573Z,100412.47
2023-04-27T11:59:40.623Z,100416.97
2023-04-27T12:03:02.548Z,100415.81
2023-04-27T12:06:32.985Z,100422.28
2023-04-27T12:09:55.512Z,100414.72
2023-04-27T12:13:17.299Z,100429.78
2023-04-27T12:16:39.243Z,100433.09
2023-04-27T12:20:01.325Z,100430.75
2023-04-27T12:23:24.804Z,100416.25
2023-04-27T12:26:46.972Z,100423.47
2023-04-27T12:30:09.839Z,100430.91
2023-04-27T12:33:31.818Z,100431.41
2023-04-27T12:36:53.853Z,100430.63
2023-04-27T12:40:17.370Z,100426.56
2023-04-27T12:43:41.237Z,100431.25
2023-04-27T12:47:04.220Z,100416.31
2023-04-27T12:50:26.096Z,100433.91
2023-04-27T12:53:47.742Z,100426.38
2023-04-27T12:57:11.206Z,100429.34
2023-04-27T13:00:34.374Z,100436.13
2023-04-27T13:03:57.539Z,100433.84
2023-04-27T13:07:19.774Z,100430.13
2023-04-27T13:10:41.528Z,100439.03
2023-04-27T13:14:05.370Z,100435.38
2023-04-27T13:17:27.015Z,100431.75
2023-04-27T13:20:49.926Z,100435.78
2023-04-27T13:24:12.444Z,100432.59
2023-04-27T13:27:34.509Z,100425.81
2023-04-27T13:30:58.985Z,100434.41
2023-04-27T13:34:22.020Z,100435.19
2023-04-27T13:37:43.842Z,100436.88
2023-04-27T13:41:06.432Z,100446.97
2023-04-27T13:44:28.466Z,100453.94
2023-04-27T13:47:51.971Z,100456.59
2023-04-27T13:51:14.378Z,100446.44
2023-04-27T13:54:36.605Z,100456.59
2023-04-27T13:57:58.954Z,100463.63
2023-04-27T14:01:20.821Z,100473.75
2023-04-27T14:04:44.010Z,100467.56
2023-04-27T14:08:06.556Z,100470.69
2023-04-27T14:11:28.498Z,100447.09
2023-04-27T14:14:50.396Z,100475.44
2023-04-27T14:18:12.271Z,100470.53
2023-04-27T14:21:35.458Z,100475.00
2023-04-27T14:24:57.687Z,100480.69
2023-04-27T14:28:19.699Z,100473.03
2023-04-27T14:31:42.286Z,100453.63
2023-04-27T14:35:03.890Z,100499.78
2023-04-27T14:38:27.739Z,100489.53
2023-04-27T14:41:49.752Z,100488.09
2023-04-27T14:45:12.512Z,100488.94
2023-04-27T14:48:34.204Z,100496.38
2023-04-27T14:51:56.040Z,100483.34
2023-04-27T14:55:19.260Z,100492.03
2023-04-27T14:58:41.640Z,100494.59
2023-04-27T15:02:04.969Z,100495.81
2023-04-27T15:05:27.063Z,100500.13
2023-04-27T15:08:49.185Z,100504.59
2023-04-27T15:12:13.121Z,100504.38
2023-04-27T15:15:35.619Z,100514.38
2023-04-27T15:18:57.691Z,100504.97
2023-04-27T15:22:19.778Z,100511.88
2023-04-27T15:25:43.793Z,100517.94
2023-04-27T15:29:07.143Z,100519.28
2023-04-27T15:32:30.396Z,100514.25
2023-04-27T15:35:52.821Z,100523.44
2023-04-27T15:39:15.429Z,100517.56
2023-04-27T15:42:37.359Z,100519.50
2023-04-27T15:46:00.830Z,100514.47
2023-04-27T15:49:22.619Z,100522.41
2023-04-27T15:52:44.740Z,100521.88
2023-04-27T15:56:07.159Z,100520.16
2023-04-27T15:59:29.320Z,100520.59
2023-04-27T16:02:52.554Z,100529.56
2023-04-27T16:06:14.416Z,100532.53
2023-04-27T16:09:36.911Z,100535.31
2023-04-27T16:12:58.659Z,100537.31
2023-04-27T16:16:20.498Z,100543.09
2023-04-27T16:19:43.675Z,100540.00
2023-04-27T16:23:06.069Z,100544.22
2023-04-27T16:26:28.412Z,100534.38
2023-04-27T16:29:50.324Z,100551.88
2023-04-27T16:33:12.187Z,100551.53
2023-04-27T16:36:35.730Z,100557.84
2023-04-27T16:39:59.902Z,100552.94
2023-04-27T16:43:22.054Z,100558.59
2023-04-27T16:46:44.218Z,100541.56
2023-04-27T16:50:06.704Z,100566.81
2023-04-27T16:53:29.823Z,100562.13
2023-04-27T16:56:54.525Z,100565.03
2023-04-27T17:00:17.497Z,100569.03
2023-04-27T17:03:39.322Z,100576.53
2023-04-27T17:07:01.306Z,100575.34
2023-04-27T17:10:24.815Z,100576.84
2023-04-27T17:13:46.990Z,100575.97
2023-04-27T17:17:08.841Z,100552.53
2023-04-27T17:20:30.583Z,100582.38
2023-04-27T17:23:53.316Z,100584.53
2023-04-27T17:27:16.567Z,100587.44
2023-04-27T17:30:38.160Z,100600.06
2023-04-27T17:34:00.001Z,100600.03
2023-04-27T17:37:21.857Z,100599.94
2023-04-27T17:40:44.506Z,100617.94
2023-04-27T17:44:07.554Z,100615.16
2023-04-27T17:47:29.590Z,100624.09
2023-04-27T17:50:51.707Z,100623.31
2023-04-27T17:54:14.333Z,100626.84
2023-04-27T17:57:36.362Z,100621.78
2023-04-27T18:00:59.656Z,100638.44
2023-04-27T18:04:21.778Z,100642.63
2023-04-27T18:07:46.278Z,100636.25
2023-04-27T18:11:08.317Z,100641.97
2023-04-27T18:14:30.395Z,100644.28
2023-04-27T18:17:53.959Z,100650.88
2023-04-27T18:21:16.118Z,100658.31
2023-04-27T18:24:37.979Z,100658.66
2023-04-27T18:28:00.045Z,100655.63
2023-04-27T18:31:23.883Z,100651.69
2023-04-27T18:34:47.515Z,100650.31
2023-04-27T18:38:09.456Z,100654.03
2023-04-27T18:41:31.315Z,100654.22
2023-04-27T18:44:54.856Z,100662.94
2023-04-27T18:48:17.067Z,100656.34
2023-04-27T18:51:40.204Z,100659.97
2023-04-27T18:55:02.433Z,100656.78
2023-04-27T18:58:24.499Z,100656.09
2023-04-27T19:01:46.440Z,100659.81
2023-04-27T19:05:12.837Z,100663.50
2023-04-27T19:08:36.524Z,100670.53
2023-04-27T19:12:02.798Z,100673.34
2023-04-27T19:15:26.058Z,100670.97
2023-04-27T19:18:48.341Z,100678.13
2023-04-27T19:22:10.726Z,100670.69
2023-04-27T19:25:33.866Z,100682.94
2023-04-27T19:28:56.185Z,100689.25
2023-04-27T19:32:18.236Z,100680.94
2023-04-27T19:35:40.165Z,100686.97
2023-04-27T19:39:02.152Z,100691.44
2023-04-27T19:42:26.430Z,100689.06
2023-04-27T19:45:49.590Z,100688.31
2023-04-27T19:49:11.557Z,100685.03
2023-04-27T19:52:33.522Z,100691.28
2023-04-27T19:55:56.088Z,100689.72
2023-04-27T19:59:19.220Z,100688.19
2023-04-27T20:02:41.369Z,100692.69
2023-04-27T20:06:03.906Z,100682.50
2023-04-27T20:09:26.007Z,100694.69
2023-04-27T20:12:55.925Z,100693.06
2023-04-27T20:16:21.650Z,100692.28
2023-04-27T20:19:43.425Z,100691.56
2023-04-27T20:23:05.600Z,100697.66
2023-04-27T20:26:27.496Z,100698.56
2023-04-27T20:29:49.306Z,100699.50
2023-04-27T20:33:13.781Z,100697.84
2023-04-27T20:36:35.837Z,100703.09
2023-04-27T20:39:57.987Z,100702.25
2023-04-27T20:43:21.177Z,100707.50
2023-04-27T20:46:43.291Z,100708.34
2023-04-27T20:50:08.073Z,100701.47
2023-04-27T20:53:30.277Z,100702.31
2023-04-27T20:56:52.198Z,100707.44
2023-04-27T21:00:15.549Z,100700.56
2023-04-27T21:03:37.510Z,100703.88
2023-04-27T21:07:00.999Z,100699.53
2023-04-27T21:10:23.070Z,100701.16
2023-04-27T21:13:44.984Z,100699.41
2023-04-27T21:17:06.636Z,100699.41
2023-04-27T21:20:28.473Z,100697.72
2023-04-27T21:24:04.063Z,100697.66
2023-04-27T21:27:29.461Z,100694.22
2023-04-27T21:30:51.314Z,100698.56
2023-04-27T21:34:13.202Z,100695.19
2023-04-27T21:37:35.848Z,100707.25
2023-04-27T21:41:00.172Z,100701.28
2023-04-27T21:44:21.875Z,100696.16
2023-04-27T21:47:44.024Z,100700.50
2023-04-27T21:51:06.077Z,100696.28
2023-04-27T21:54:27.925Z,100703.25
2023-04-27T21:57:51.445Z,100709.41
2023-04-27T22:01:14.381Z,100710.31
2023-04-27T22:04:38.450Z,100706.16
2023-04-27T22:08:00.829Z,100710.50
2023-04-27T22:11:22.587Z,100704.56
2023-04-27T22:14:47.032Z,100711.50
2023-04-27T22:18:09.122Z,100702.13
2023-04-27T22:21:31.520Z,100709.03
2023-04-27T22:24:53.329Z,100709.13
2023-04-27T22:28:15.109Z,100706.66
2023-04-27T22:31:38.441Z,100711.94
2023-04-27T22:35:01.572Z,100714.69
2023-04-27T22:38:23.337Z,100713.94
2023-04-27T22:41:45.984Z,100710.63
2023-04-27T22:45:08.774Z,100715.00
2023-04-27T22:48:32.096Z,100713.38
2023-04-27T22:51:57.765Z,100717.81
2023-04-27T22:55:19.290Z,100715.34
2023-04-27T22:58:41.168Z,100714.53
2023-04-27T23:02:03.391Z,100717.19
2023-04-27T23:05:26.801Z,100721.53
2023-04-27T23:08:48.522Z,100723.38
2023-04-27T23:12:10.836Z,100729.38
2023-04-27T23:15:32.934Z,100733.69
2023-04-27T23:18:55.217Z,100738.06
2023-04-27T23:22:18.541Z,100727.78
2023-04-27T23:25:40.072Z,100729.50
2023-04-27T23:29:01.570Z,100731.22
2023-04-27T23:32:23.408Z,100731.25
2023-04-27T23:35:45.204Z,100733.88
2023-04-27T23:39:08.598Z,100737.38
2023-04-27T23:42:30.596Z,100729.69
2023-04-27T23:45:53.561Z,100730.63
2023-04-27T23:49:15.478Z,100720.28
2023-04-27T23:52:37.522Z,100724.59
2023-04-27T23:56:00.522Z,100728.97
2023-04-27T23:59:22.673Z,100734.13
